Time;durP1;ratioP1;P1;durP2;ratioP2;P2;SDS_P1;SDS_P2;PMS_P1;PMS_P2;Temp;Humidity;BMP_temperature;BMP_pressure;BME280_temperature;BME280_humidity;BME280_pressure;Samples;Min_cycle;Max_cycle;Signal;HPM_P1;HPM_P2
2022/05/01 00:01:08;;;;;;;;;;;;;;;;;;5056972;28;20000;-44
2022/05/01 00:03:35;;;;;;;;;;;;;;;;;;5057281;28;20007;-45
2022/05/01 00:06:00;;;;;;;;;;;;;;;;;;5057084;28;19947;-41
2022/05/01 00:08:25;;;;;;;;;;;;;;;;;;5057212;28;19913;-43
2022/05/01 00:10:50;;;;;;;;;;;;;;;;;;5057272;28;19974;-43
2022/05/01 00:13:16;;;;;;;;;;;;;;;;;;5056952;28;19920;-43
2022/05/01 00:15:42;;;;;;;;;;;;;;;;;;5056264;28;19912;-43
2022/05/01 00:18:07;;;;;;;;;;;;;;;;;;5057072;28;19915;-43
2022/05/01 00:20:32;;;;;;;;;;;;;;;;;;5056866;28;19909;-43
2022/05/01 00:22:58;;;;;;;;;;;;;;;;;;5057069;28;19915;-43
2022/05/01 00:25:23;;;;;;;;;;;;;;;;;;5056925;28;19913;-43
2022/05/01 00:27:48;;;;;;;;;;;;;;;;;;5056656;28;19984;-43
2022/05/01 00:30:13;;;;;;;;;;;;;;;;;;5056921;28;20004;-43
2022/05/01 00:38:06;;;;;;;;;;;;;;;;;;5056846;28;19916;-43
2022/05/01 00:40:31;;;;;;;;;;;;;;;;;;5055320;28;19909;-43
2022/05/01 00:42:56;;;;;;;;;;;;;;;;;;5056256;28;19917;-43
2022/05/01 00:45:22;;;;;;;;;;;;;;;;;;5056706;28;20351;-43
2022/05/01 00:47:47;;;;;;;;;;;;;;;;;;5056237;28;19916;-44
2022/05/01 00:50:12;;;;;;;;;;;;;;;;;;5056091;28;19913;-42
2022/05/01 00:52:37;;;;;;;;;;;;;;;;;;5056435;28;19913;-43
2022/05/01 00:55:02;;;;;;;;;;;;;;;;;;5055814;28;19920;-43
2022/05/01 00:57:27;;;;;;;;;;;;;;;;;;5056303;28;19912;-43
2022/05/01 00:59:52;;;;;;;;;;;;;;;;;;5055889;28;20335;-43
2022/05/01 01:02:17;;;;;;;;;;;;;;;;;;5056015;28;19913;-42
2022/05/01 01:04:43;;;;;;;;;;;;;;;;;;5055737;28;19962;-42
2022/05/01 01:07:08;;;;;;;;;;;;;;;;;;5056079;28;19934;-42
2022/05/01 01:09:33;;;;;;;;;;;;;;;;;;5056051;28;19958;-43
2022/05/01 01:14:53;;;;;;;;;;;;;;;;;;5034873;28;20020;-42
2022/05/01 01:17:18;;;;;;;;;;;;;;;;;;5055956;28;20018;-43
2022/05/01 01:19:43;;;;;;;;;;;;;;;;;;5055793;28;19912;-42
2022/05/01 01:22:08;;;;;;;;;;;;;;;;;;5055594;28;19908;-42
2022/05/01 01:24:33;;;;;;;;;;;;;;;;;;5055337;28;20294;-42
2022/05/01 01:26:59;;;;;;;;;;;;;;;;;;5059702;22;19921;-43
2022/05/01 01:32:08;;;;;;;;;;;;;;;;;;5035646;28;19971;-42
2022/05/01 01:34:33;;;;;;;;;;;;;;;;;;5035263;28;19909;-42
2022/05/01 01:36:58;;;;;;;;;;;;;;;;;;5035340;28;19923;-42
2022/05/01 01:39:23;;;;;;;;;;;;;;;;;;5035643;28;20004;-42
2022/05/01 01:41:48;;;;;;;;;;;;;;;;;;5035288;28;20000;-42
2022/05/01 01:44:14;;;;;;;;;;;;;;;;;;5035252;28;20320;-42
2022/05/01 01:46:39;;;;;;;;;;;;;;;;;;5035646;28;19920;-42
2022/05/01 01:49:06;;;;;;;;;;;;;;;;;;5035415;28;20383;-43
2022/05/01 01:51:31;;;;;;;;;;;;;;;;;;5035004;28;19913;-42
2022/05/01 01:53:56;;;;;;;;;;;;;;;;;;5034860;28;20383;-43
2022/05/01 01:56:21;;;;;;;;;;;;;;;;;;5035266;28;20008;-42
2022/05/01 01:58:46;;;;;;;;;;;;;;;;;;5035365;28;19992;-42
2022/05/01 02:01:11;;;;;;;;;;;;;;;;;;5035166;28;19909;-42
2022/05/01 02:03:36;;;;;;;;;;;;;;;;;;5034854;28;19909;-42
2022/05/01 02:06:04;;;;;;;;;;;;;;;;;;5034972;28;19913;-42
2022/05/01 02:08:29;;;;;;;;;;;;;;;;;;5034954;28;20422;-42
2022/05/01 02:10:54;;;;;;;;;;;;;;;;;;5034889;28;19913;-42
2022/05/01 02:13:19;;;;;;;;;;;;;;;;;;5038918;28;19909;-42
2022/05/01 02:15:44;;;;;;;;;;;;;;;;;;5054723;28;19913;-42
2022/05/01 02:18:09;;;;;;;;;;;;;;;;;;5055085;28;19913;-42
2022/05/01 02:23:18;;;;;;;;;;;;;;;;;;5054579;28;20379;-42
2022/05/01 02:25:43;;;;;;;;;;;;;;;;;;5054367;28;19912;-42
2022/05/01 02:28:10;;;;;;;;;;;;;;;;;;5054152;28;19928;-42
2022/05/01 02:30:35;;;;;;;;;;;;;;;;;;5054506;28;19928;-42
2022/05/01 02:33:00;;;;;;;;;;;;;;;;;;5054590;28;19913;-42
2022/05/01 02:35:26;;;;;;;;;;;;;;;;;;5054545;28;19913;-42
2022/05/01 02:37:51;;;;;;;;;;;;;;;;;;5054933;28;19909;-42
2022/05/01 02:40:16;;;;;;;;;;;;;;;;;;5054762;28;19912;-42
2022/05/01 02:42:42;;;;;;;;;;;;;;;;;;5054695;28;19916;-42
2022/05/01 02:45:07;;;;;;;;;;;;;;;;;;5054724;28;20348;-42
2022/05/01 02:47:33;;;;;;;;;;;;;;;;;;5054762;28;20012;-43
2022/05/01 02:49:59;;;;;;;;;;;;;;;;;;5054675;28;19948;-42
2022/05/01 02:52:24;;;;;;;;;;;;;;;;;;5054510;28;19959;-42
2022/05/01 02:54:50;;;;;;;;;;;;;;;;;;5054211;28;19913;-42
2022/05/01 02:57:15;;;;;;;;;;;;;;;;;;5054225;28;20387;-42
2022/05/01 02:59:40;;;;;;;;;;;;;;;;;;5054242;28;19915;-42
2022/05/01 03:02:05;;;;;;;;;;;;;;;;;;5054463;28;19913;-42
2022/05/01 03:04:30;;;;;;;;;;;;;;;;;;5057094;28;19909;-42
2022/05/01 03:06:56;;;;;;;;;;;;;;;;;;5058151;28;20374;-42
2022/05/01 03:09:21;;;;;;;;;;;;;;;;;;5058180;28;20003;-42
2022/05/01 03:11:46;;;;;;;;;;;;;;;;;;5058118;28;19947;-42
2022/05/01 03:14:12;;;;;;;;;;;;;;;;;;5058273;28;20014;-43
2022/05/01 03:16:37;;;;;;;;;;;;;;;;;;5057869;28;19961;-43
2022/05/01 03:24:29;;;;;;;;;;;;;;;;;;5057943;28;19975;-42
2022/05/01 03:26:55;;;;;;;;;;;;;;;;;;5057602;28;19913;-42
2022/05/01 03:29:20;;;;;;;;;;;;;;;;;;5058311;28;19913;-42
2022/05/01 03:31:48;;;;;;;;;;;;;;;;;;5058051;28;19925;-42
2022/05/01 03:34:14;;;;;;;;;;;;;;;;;;5058049;28;19962;-41
2022/05/01 03:36:39;;;;;;;;;;;;;;;;;;5058294;28;20271;-42
2022/05/01 03:39:05;;;;;;;;;;;;;;;;;;5057701;28;19909;-42
2022/05/01 03:41:30;;;;;;;;;;;;;;;;;;5057501;28;19909;-42
2022/05/01 03:43:55;;;;;;;;;;;;;;;;;;5057479;28;20387;-43
2022/05/01 03:46:22;;;;;;;;;;;;;;;;;;5057210;28;19916;-42
2022/05/01 03:48:47;;;;;;;;;;;;;;;;;;5057377;28;19908;-42
2022/05/01 03:51:13;;;;;;;;;;;;;;;;;;5057511;28;19913;-42
2022/05/01 03:53:38;;;;;;;;;;;;;;;;;;5057392;28;19913;-42
2022/05/01 03:56:03;;;;;;;;;;;;;;;;;;5057137;28;19983;-42
2022/05/01 03:58:29;;;;;;;;;;;;;;;;;;5057119;28;19916;-42
2022/05/01 04:00:54;;;;;;;;;;;;;;;;;;5057212;28;20368;-42
2022/05/01 04:03:19;;;;;;;;;;;;;;;;;;5057313;28;19909;-42
2022/05/01 04:05:45;;;;;;;;;;;;;;;;;;5057234;28;19916;-42
2022/05/01 04:08:10;;;;;;;;;;;;;;;;;;5057317;28;19944;-42
2022/05/01 04:10:35;;;;;;;;;;;;;;;;;;5056963;28;19955;-43
2022/05/01 04:13:00;;;;;;;;;;;;;;;;;;5057437;28;20356;-43
2022/05/01 04:15:25;;;;;;;;;;;;;;;;;;5056468;28;20271;-43
2022/05/01 04:17:50;;;;;;;;;;;;;;;;;;5057321;28;19905;-44
2022/05/01 04:20:15;;;;;;;;;;;;;;;;;;5057098;28;19905;-42
2022/05/01 04:22:40;;;;;;;;;;;;;;;;;;5056812;28;20308;-42
2022/05/01 04:25:06;;;;;;;;;;;;;;;;;;5056721;28;19913;-42
2022/05/01 04:27:31;;;;;;;;;;;;;;;;;;5056993;28;19923;-43
2022/05/01 04:29:56;;;;;;;;;;;;;;;;;;5056812;28;19999;-42
2022/05/01 04:32:22;;;;;;;;;;;;;;;;;;5056655;28;20368;-42
2022/05/01 04:34:47;;;;;;;;;;;;;;;;;;5056468;28;20003;-42
2022/05/01 04:37:12;;;;;;;;;;;;;;;;;;5056677;28;20001;-42
2022/05/01 04:39:37;;;;;;;;;;;;;;;;;;5056678;28;19963;-42
2022/05/01 04:42:03;;;;;;;;;;;;;;;;;;5056536;28;19935;-43
2022/05/01 04:44:28;;;;;;;;;;;;;;;;;;5056058;28;20437;-43
2022/05/01 04:46:53;;;;;;;;;;;;;;;;;;5056600;28;20371;-42
2022/05/01 04:49:21;;;;;;;;;;;;;;;;;;5056558;28;19956;-42
2022/05/01 04:51:47;;;;;;;;;;;;;;;;;;5056343;28;20277;-43
2022/05/01 04:54:12;;;;;;;;;;;;;;;;;;5056206;28;19936;-42
2022/05/01 04:59:21;;;;;;;;;;;;;;;;;;5056758;28;19920;-42
2022/05/01 05:01:47;;;;;;;;;;;;;;;;;;5056386;28;19905;-42
2022/05/01 05:04:12;;;;;;;;;;;;;;;;;;5056252;28;19908;-42
2022/05/01 05:06:37;;;;;;;;;;;;;;;;;;5055740;28;20406;-43
2022/05/01 05:11:46;;;;;;;;;;;;;;;;;;5056381;28;20329;-42
2022/05/01 05:14:11;;;;;;;;;;;;;;;;;;5055975;28;19913;-42
2022/05/01 05:16:36;;;;;;;;;;;;;;;;;;5055851;28;20360;-42
2022/05/01 05:19:02;;;;;;;;;;;;;;;;;;5056196;28;20368;-42
2022/05/01 05:21:27;;;;;;;;;;;;;;;;;;5056110;28;19904;-43
2022/05/01 05:23:52;;;;;;;;;;;;;;;;;;5055962;28;20352;-42
2022/05/01 05:26:17;;;;;;;;;;;;;;;;;;5054818;28;20260;-43
2022/05/01 05:28:42;;;;;;;;;;;;;;;;;;5055428;28;19920;-42
2022/05/01 05:31:07;;;;;;;;;;;;;;;;;;5055497;28;19916;-43
2022/05/01 05:33:32;;;;;;;;;;;;;;;;;;5055672;28;20378;-42
2022/05/01 05:35:57;;;;;;;;;;;;;;;;;;5055312;28;20019;-45
2022/05/01 05:38:22;;;;;;;;;;;;;;;;;;5055650;28;19916;-43
2022/05/01 05:40:47;;;;;;;;;;;;;;;;;;5055584;28;19909;-43
2022/05/01 05:43:13;;;;;;;;;;;;;;;;;;5055381;28;19956;-44
2022/05/01 05:45:38;;;;;;;;;;;;;;;;;;5054856;28;19917;-42
2022/05/01 05:48:03;;;;;;;;;;;;;;;;;;5055237;28;19909;-42
2022/05/01 05:50:28;;;;;;;;;;;;;;;;;;5055141;28;19913;-43
2022/05/01 05:52:53;;;;;;;;;;;;;;;;;;5055009;28;19955;-42
2022/05/01 05:55:18;;;;;;;;;;;;;;;;;;5054697;28;20003;-43
2022/05/01 05:57:44;;;;;;;;;;;;;;;;;;5054981;28;20011;-43
2022/05/01 06:00:09;;;;;;;;;;;;;;;;;;5055123;28;20000;-43
2022/05/01 06:02:35;;;;;;;;;;;;;;;;;;5054955;28;19909;-43
2022/05/01 06:05:00;;;;;;;;;;;;;;;;;;5054878;28;19916;-43
2022/05/01 06:07:25;;;;;;;;;;;;;;;;;;5055392;28;19931;-43
2022/05/01 06:09:50;;;;;;;;;;;;;;;;;;5054888;28;20429;-43
2022/05/01 06:12:15;;;;;;;;;;;;;;;;;;5054756;28;20430;-43
2022/05/01 06:14:40;;;;;;;;;;;;;;;;;;5054762;28;20282;-43
2022/05/01 06:17:05;;;;;;;;;;;;;;;;;;5054872;28;20318;-43
2022/05/01 06:19:31;;;;;;;;;;;;;;;;;;5054662;28;19942;-43
2022/05/01 06:21:56;;;;;;;;;;;;;;;;;;5054799;28;19912;-43
2022/05/01 06:24:21;;;;;;;;;;;;;;;;;;5054430;28;19908;-43
2022/05/01 06:26:46;;;;;;;;;;;;;;;;;;5054651;28;19909;-43
2022/05/01 06:29:11;;;;;;;;;;;;;;;;;;5054594;28;20295;-43
2022/05/01 06:31:36;;;;;;;;;;;;;;;;;;5054410;28;19917;-43
2022/05/01 06:34:01;;;;;;;;;;;;;;;;;;5054553;28;19909;-43
2022/05/01 06:36:26;;;;;;;;;;;;;;;;;;5054251;28;19913;-43
2022/05/01 06:38:52;;;;;;;;;;;;;;;;;;5056424;28;19912;-43
2022/05/01 06:41:17;;;;;;;;;;;;;;;;;;5058408;28;19909;-43
2022/05/01 06:43:42;;;;;;;;;;;;;;;;;;5058563;28;19908;-43
2022/05/01 06:46:07;;;;;;;;;;;;;;;;;;5058234;28;19962;-43
2022/05/01 06:48:32;;;;;;;;;;;;;;;;;;5058626;28;20318;-43
2022/05/01 06:50:57;;;;;;;;;;;;;;;;;;5058205;28;19919;-44
2022/05/01 06:53:22;;;;;;;;;;;;;;;;;;5058006;28;20268;-43
2022/05/01 06:55:48;;;;;;;;;;;;;;;;;;5058231;28;19974;-43
2022/05/01 06:58:13;;;;;;;;;;;;;;;;;;5058366;28;19972;-43
2022/05/01 07:00:38;;;;;;;;;;;;;;;;;;5058168;28;20000;-42
2022/05/01 07:03:03;;;;;;;;;;;;;;;;;;5058396;28;20342;-43
2022/05/01 07:05:28;;;;;;;;;;;;;;;;;;5057449;28;20356;-43
2022/05/01 07:07:54;;;;;;;;;;;;;;;;;;5057973;28;19912;-43
2022/05/01 07:10:19;;;;;;;;;;;;;;;;;;5058162;28;19916;-43
2022/05/01 07:12:45;;;;;;;;;;;;;;;;;;5058100;28;19909;-43
2022/05/01 07:15:10;;;;;;;;;;;;;;;;;;5057720;28;19998;-43
2022/05/01 07:17:35;;;;;;;;;;;;;;;;;;5058055;28;19913;-44
2022/05/01 07:20:00;;;;;;;;;;;;;;;;;;5057877;28;19962;-42
2022/05/01 07:22:25;;;;;;;;;;;;;;;;;;5058023;28;19912;-45
2022/05/01 07:24:50;;;;;;;;;;;;;;;;;;5057759;28;19913;-42
2022/05/01 07:27:16;;;;;;;;;;;;;;;;;;5057543;28;20039;-42
2022/05/01 07:29:41;;;;;;;;;;;;;;;;;;5057499;28;20352;-44
2022/05/01 07:32:06;;;;;;;;;;;;;;;;;;5057748;28;20421;-42
2022/05/01 07:34:31;;;;;;;;;;;;;;;;;;5057870;28;20003;-42
2022/05/01 07:36:56;;;;;;;;;;;;;;;;;;5057575;28;19992;-44
2022/05/01 07:39:21;;;;;;;;;;;;;;;;;;5057679;28;19962;-43
2022/05/01 07:41:46;;;;;;;;;;;;;;;;;;5057520;28;19909;-42
2022/05/01 07:44:11;;;;;;;;;;;;;;;;;;5057443;28;19919;-43
2022/05/01 07:46:36;;;;;;;;;;;;;;;;;;5057077;28;19920;-43
2022/05/01 07:49:02;;;;;;;;;;;;;;;;;;5056857;28;19908;-42
2022/05/01 07:51:27;;;;;;;;;;;;;;;;;;5057534;28;20007;-43
2022/05/01 07:53:53;;;;;;;;;;;;;;;;;;5057320;28;20007;-43
2022/05/01 07:56:18;;;;;;;;;;;;;;;;;;5056023;28;19909;-43
2022/05/01 07:58:43;;;;;;;;;;;;;;;;;;5057293;28;19916;-43
2022/05/01 08:01:08;;;;;;;;;;;;;;;;;;5057248;28;19936;-44
2022/05/01 08:06:17;;;;;;;;;;;;;;;;;;5057405;28;20471;-43
2022/05/01 08:08:42;;;;;;;;;;;;;;;;;;5057080;28;19948;-43
2022/05/01 08:11:08;;;;;;;;;;;;;;;;;;5057034;28;19920;-43
2022/05/01 08:13:33;;;;;;;;;;;;;;;;;;5056963;28;19908;-43
2022/05/01 08:15:58;;;;;;;;;;;;;;;;;;5056615;28;20379;-42
2022/05/01 08:21:10;;;;;;;;;;;;;;;;;;5056966;28;19915;-43
2022/05/01 08:23:36;;;;;;;;;;;;;;;;;;5056428;28;19959;-43
2022/05/01 08:26:04;;;;;;;;;;;;;;;;;;5056633;28;19916;-44
2022/05/01 08:28:30;;;;;;;;;;;;;;;;;;5056586;28;19970;-43
2022/05/01 08:30:55;;;;;;;;;;;;;;;;;;5056755;28;19916;-43
2022/05/01 08:33:20;;;;;;;;;;;;;;;;;;5056603;28;19915;-43
2022/05/01 08:35:45;;;;;;;;;;;;;;;;;;5056474;28;19915;-44
2022/05/01 08:38:11;;;;;;;;;;;;;;;;;;5056591;28;19915;-43
2022/05/01 08:40:36;;;;;;;;;;;;;;;;;;5056603;28;19909;-44
2022/05/01 08:43:01;;;;;;;;;;;;;;;;;;5056156;28;20354;-42
2022/05/01 08:45:26;;;;;;;;;;;;;;;;;;5056130;28;19979;-43
2022/05/01 08:47:53;;;;;;;;;;;;;;;;;;5056230;28;20276;-45
2022/05/01 08:50:18;;;;;;;;;;;;;;;;;;5056189;28;19915;-43
2022/05/01 08:52:43;;;;;;;;;;;;;;;;;;5056206;28;19908;-44
2022/05/01 08:55:08;;;;;;;;;;;;;;;;;;5056181;28;19913;-45
2022/05/01 08:57:33;;;;;;;;;;;;;;;;;;5056257;28;19908;-44
2022/05/01 08:59:59;;;;;;;;;;;;;;;;;;5055978;28;19909;-44
2022/05/01 09:02:24;;;;;;;;;;;;;;;;;;5055064;28;20385;-44
2022/05/01 09:04:49;;;;;;;;;;;;;;;;;;5055917;28;20322;-43
2022/05/01 09:07:14;;;;;;;;;;;;;;;;;;5055467;28;20401;-44
2022/05/01 09:09:39;;;;;;;;;;;;;;;;;;5055705;28;19909;-43
2022/05/01 09:14:49;;;;;;;;;;;;;;;;;;5055685;28;19935;-43
2022/05/01 09:17:14;;;;;;;;;;;;;;;;;;5055508;28;20066;-43
2022/05/01 09:19:40;;;;;;;;;;;;;;;;;;5055280;28;20364;-43
2022/05/01 09:22:05;;;;;;;;;;;;;;;;;;5054215;28;19955;-44
2022/05/01 09:24:30;;;;;;;;;;;;;;;;;;5055486;28;19912;-44
2022/05/01 09:26:55;;;;;;;;;;;;;;;;;;5053734;28;20483;-45
2022/05/01 09:29:20;;;;;;;;;;;;;;;;;;5055333;28;20024;-43
2022/05/01 09:31:46;;;;;;;;;;;;;;;;;;5054689;28;20264;-44
2022/05/01 09:34:11;;;;;;;;;;;;;;;;;;5055059;28;19909;-44
2022/05/01 09:36:36;;;;;;;;;;;;;;;;;;5054968;28;19915;-43
2022/05/01 09:39:01;;;;;;;;;;;;;;;;;;5054963;28;19947;-43
2022/05/01 09:41:26;;;;;;;;;;;;;;;;;;5054977;28;19916;-44
2022/05/01 09:43:51;;;;;;;;;;;;;;;;;;5054845;28;19913;-44
2022/05/01 09:46:16;;;;;;;;;;;;;;;;;;5054870;28;19913;-43
2022/05/01 09:48:41;;;;;;;;;;;;;;;;;;5054971;28;19909;-43
2022/05/01 09:51:07;;;;;;;;;;;;;;;;;;5054897;28;19912;-44
2022/05/01 09:53:32;;;;;;;;;;;;;;;;;;5054992;28;19909;-44
2022/05/01 09:55:57;;;;;;;;;;;;;;;;;;5054551;28;19913;-43
2022/05/01 09:58:23;;;;;;;;;;;;;;;;;;5054791;28;19908;-44
2022/05/01 10:00:48;;;;;;;;;;;;;;;;;;5054807;28;19905;-43
2022/05/01 10:03:13;;;;;;;;;;;;;;;;;;5054733;28;19913;-43
2022/05/01 10:05:38;;;;;;;;;;;;;;;;;;5054771;28;19909;-44
2022/05/01 10:08:03;;;;;;;;;;;;;;;;;;5054311;28;20392;-44
2022/05/01 10:10:29;;;;;;;;;;;;;;;;;;5054417;28;20255;-44
2022/05/01 10:12:54;;;;;;;;;;;;;;;;;;5054230;28;19913;-45
2022/05/01 10:15:20;;;;;;;;;;;;;;;;;;5054478;28;19916;-43
2022/05/01 10:17:47;;;;;;;;;;;;;;;;;;5054352;28;19909;-43
2022/05/01 10:20:13;;;;;;;;;;;;;;;;;;5054383;28;20310;-46
2022/05/01 10:22:38;;;;;;;;;;;;;;;;;;5054301;28;19935;-43
2022/05/01 10:25:03;;;;;;;;;;;;;;;;;;5053449;28;19983;-45
2022/05/01 10:27:29;;;;;;;;;;;;;;;;;;5053991;28;19943;-45
2022/05/01 10:32:38;;;;;;;;;;;;;;;;;;5054279;28;19940;-44
2022/05/01 10:35:04;;;;;;;;;;;;;;;;;;5054212;28;19909;-44
2022/05/01 10:37:29;;;;;;;;;;;;;;;;;;5054314;28;20371;-44
2022/05/01 10:39:54;;;;;;;;;;;;;;;;;;5054171;28;20004;-44
2022/05/01 10:42:19;;;;;;;;;;;;;;;;;;5054142;28;20051;-44
2022/05/01 10:44:45;;;;;;;;;;;;;;;;;;5054351;28;19909;-44
2022/05/01 10:47:12;;;;;;;;;;;;;;;;;;5054202;28;20271;-44
2022/05/01 10:49:37;;;;;;;;;;;;;;;;;;5054297;28;20010;-43
2022/05/01 10:52:02;;;;;;;;;;;;;;;;;;5053500;28;20367;-43
2022/05/01 10:54:27;;;;;;;;;;;;;;;;;;5056927;28;19917;-44
2022/05/01 10:56:52;;;;;;;;;;;;;;;;;;5054139;28;19909;-44
2022/05/01 10:59:18;;;;;;;;;;;;;;;;;;5054264;28;19936;-43
2022/05/01 11:01:43;;;;;;;;;;;;;;;;;;5054167;28;19913;-44
2022/05/01 11:04:09;;;;;;;;;;;;;;;;;;5052869;28;19908;-44
2022/05/01 11:06:34;;;;;;;;;;;;;;;;;;5054175;28;19913;-44
2022/05/01 11:08:59;;;;;;;;;;;;;;;;;;5054184;28;19916;-44
2022/05/01 11:11:25;;;;;;;;;;;;;;;;;;5054003;28;19921;-44
2022/05/01 11:13:50;;;;;;;;;;;;;;;;;;5054049;28;20268;-44
2022/05/01 11:16:15;;;;;;;;;;;;;;;;;;5054171;28;19909;-44
2022/05/01 11:18:41;;;;;;;;;;;;;;;;;;5053887;28;19967;-43
2022/05/01 11:21:06;;;;;;;;;;;;;;;;;;5054193;28;19948;-43
2022/05/01 11:23:34;;;;;;;;;;;;;;;;;;5053717;28;19967;-44
2022/05/01 11:25:59;;;;;;;;;;;;;;;;;;5057338;28;19913;-43
2022/05/01 11:28:24;;;;;;;;;;;;;;;;;;5057688;28;19917;-44
2022/05/01 11:30:49;;;;;;;;;;;;;;;;;;5057606;28;19917;-44
2022/05/01 11:33:16;;;;;;;;;;;;;;;;;;5057663;28;19912;-44
2022/05/01 11:35:41;;;;;;;;;;;;;;;;;;5057667;28;20364;-45
2022/05/01 11:38:06;;;;;;;;;;;;;;;;;;5057337;28;20009;-45
2022/05/01 11:40:31;;;;;;;;;;;;;;;;;;5057518;28;20419;-45
2022/05/01 11:42:56;;;;;;;;;;;;;;;;;;5057335;28;20003;-43
2022/05/01 11:45:23;;;;;;;;;;;;;;;;;;5057366;28;19962;-47
2022/05/01 11:47:48;;;;;;;;;;;;;;;;;;5057412;28;19974;-44
2022/05/01 11:50:13;;;;;;;;;;;;;;;;;;5057170;28;19962;-44
2022/05/01 11:52:38;;;;;;;;;;;;;;;;;;5056908;28;19963;-44
2022/05/01 11:55:06;;;;;;;;;;;;;;;;;;5057237;28;19908;-44
2022/05/01 12:02:59;;;;;;;;;;;;;;;;;;5057241;28;20007;-43
2022/05/01 12:05:25;;;;;;;;;;;;;;;;;;5056916;28;20352;-45
2022/05/01 12:07:50;;;;;;;;;;;;;;;;;;5056779;28;20319;-44
2022/05/01 12:10:15;;;;;;;;;;;;;;;;;;5056620;28;19956;-44
2022/05/01 12:12:40;;;;;;;;;;;;;;;;;;5056587;28;20355;-43
2022/05/01 12:15:06;;;;;;;;;;;;;;;;;;5056637;28;19916;-44
2022/05/01 12:17:32;;;;;;;;;;;;;;;;;;5056710;28;19920;-44
2022/05/01 12:19:58;;;;;;;;;;;;;;;;;;5056525;28;19961;-44
2022/05/01 12:22:23;;;;;;;;;;;;;;;;;;5056224;28;19908;-43
2022/05/01 12:24:48;;;;;;;;;;;;;;;;;;5056273;28;19920;-44
2022/05/01 12:27:14;;;;;;;;;;;;;;;;;;5056228;28;19928;-45
2022/05/01 12:29:42;;;;;;;;;;;;;;;;;;5056580;28;19909;-44
2022/05/01 12:32:07;;;;;;;;;;;;;;;;;;5056331;28;19916;-45
2022/05/01 12:34:33;;;;;;;;;;;;;;;;;;5056305;28;19916;-44
2022/05/01 12:36:58;;;;;;;;;;;;;;;;;;5056022;28;19908;-44
2022/05/01 12:39:23;;;;;;;;;;;;;;;;;;5056106;28;19913;-44
2022/05/01 12:44:32;;;;;;;;;;;;;;;;;;5056195;28;19964;-45
2022/05/01 12:46:57;;;;;;;;;;;;;;;;;;5056016;28;20323;-45
2022/05/01 12:49:22;;;;;;;;;;;;;;;;;;5056141;28;19908;-44
2022/05/01 12:51:47;;;;;;;;;;;;;;;;;;5055918;28;19917;-43
2022/05/01 12:54:19;;;;;;;;;;;;;;;;;;5056151;28;19909;-43
2022/05/01 12:56:45;;;;;;;;;;;;;;;;;;5056098;28;19909;-44
2022/05/01 12:59:10;;;;;;;;;;;;;;;;;;5056260;28;19909;-43
2022/05/01 13:01:35;;;;;;;;;;;;;;;;;;5055646;28;19905;-43
2022/05/01 13:04:00;;;;;;;;;;;;;;;;;;5055622;28;20287;-44
2022/05/01 13:06:25;;;;;;;;;;;;;;;;;;5055776;28;19909;-45
2022/05/01 13:08:50;;;;;;;;;;;;;;;;;;5055731;28;19980;-44
2022/05/01 13:11:16;;;;;;;;;;;;;;;;;;5055571;28;19912;-44
2022/05/01 13:13:41;;;;;;;;;;;;;;;;;;5055548;28;20344;-43
2022/05/01 13:16:06;;;;;;;;;;;;;;;;;;5055494;28;19978;-44
2022/05/01 13:18:31;;;;;;;;;;;;;;;;;;5055442;28;19913;-44
2022/05/01 13:20:56;;;;;;;;;;;;;;;;;;5055529;28;19916;-44
2022/05/01 13:23:21;;;;;;;;;;;;;;;;;;5055262;28;19917;-44
2022/05/01 13:25:46;;;;;;;;;;;;;;;;;;5055249;28;20276;-44
2022/05/01 13:28:11;;;;;;;;;;;;;;;;;;5050943;22;20384;-44
2022/05/01 13:30:36;;;;;;;;;;;;;;;;;;5035156;28;20368;-44
2022/05/01 13:33:01;;;;;;;;;;;;;;;;;;5035104;28;19909;-44
2022/05/01 13:35:28;;;;;;;;;;;;;;;;;;5034722;28;20285;-44
2022/05/01 13:37:53;;;;;;;;;;;;;;;;;;5035138;28;19964;-44
2022/05/01 13:45:47;;;;;;;;;;;;;;;;;;5035095;28;19916;-44
2022/05/01 13:48:12;;;;;;;;;;;;;;;;;;5034761;28;19910;-44
2022/05/01 13:50:39;;;;;;;;;;;;;;;;;;5035111;28;20004;-44
2022/05/01 13:53:06;;;;;;;;;;;;;;;;;;5035110;28;19951;-44
2022/05/01 13:55:31;;;;;;;;;;;;;;;;;;5035126;28;20004;-44
2022/05/01 13:57:56;;;;;;;;;;;;;;;;;;5035093;28;20350;-43
2022/05/01 14:00:22;;;;;;;;;;;;;;;;;;5035005;28;19959;-45
2022/05/01 14:02:47;;;;;;;;;;;;;;;;;;5035038;28;20353;-45
2022/05/01 14:05:13;;;;;;;;;;;;;;;;;;5034860;28;19993;-43
2022/05/01 14:07:38;;;;;;;;;;;;;;;;;;5034658;28;19945;-44
2022/05/01 14:10:03;;;;;;;;;;;;;;;;;;5034900;28;19909;-44
2022/05/01 14:12:28;;;;;;;;;;;;;;;;;;5034862;28;20394;-44
2022/05/01 14:14:54;;;;;;;;;;;;;;;;;;5034705;28;19913;-44
2022/05/01 14:17:19;;;;;;;;;;;;;;;;;;5034539;28;20356;-44
2022/05/01 14:19:44;;;;;;;;;;;;;;;;;;5040795;28;20271;-44
2022/05/01 14:22:09;;;;;;;;;;;;;;;;;;5054571;28;19909;-44
2022/05/01 14:24:35;;;;;;;;;;;;;;;;;;5054279;28;19927;-44
2022/05/01 14:27:00;;;;;;;;;;;;;;;;;;5054173;28;19909;-44
2022/05/01 14:29:25;;;;;;;;;;;;;;;;;;5054534;28;19913;-45
2022/05/01 14:31:50;;;;;;;;;;;;;;;;;;5054438;28;20012;-44
2022/05/01 14:34:15;;;;;;;;;;;;;;;;;;5054523;28;20003;-44
2022/05/01 14:36:40;;;;;;;;;;;;;;;;;;5054475;28;20239;-44
2022/05/01 14:39:06;;;;;;;;;;;;;;;;;;5054528;28;19916;-44
2022/05/01 14:41:31;;;;;;;;;;;;;;;;;;5054217;28;20271;-45
2022/05/01 14:43:56;;;;;;;;;;;;;;;;;;5053040;28;19909;-44
2022/05/01 14:46:21;;;;;;;;;;;;;;;;;;5054180;28;19920;-44
2022/05/01 14:48:46;;;;;;;;;;;;;;;;;;5054320;28;19912;-43
2022/05/01 14:51:11;;;;;;;;;;;;;;;;;;5054256;28;19923;-44
2022/05/01 14:53:36;;;;;;;;;;;;;;;;;;5054137;28;19908;-43
2022/05/01 14:56:01;;;;;;;;;;;;;;;;;;5053820;28;20352;-44
2022/05/01 15:06:39;;;;;;;;;;;;;;;;;;5058065;28;19935;-44
2022/05/01 15:09:04;;;;;;;;;;;;;;;;;;5058093;28;19978;-43
2022/05/01 15:11:29;;;;;;;;;;;;;;;;;;5057909;28;19966;-45
2022/05/01 15:13:54;;;;;;;;;;;;;;;;;;5057809;28;20363;-43
2022/05/01 15:16:20;;;;;;;;;;;;;;;;;;5057990;28;19916;-44
2022/05/01 15:18:45;;;;;;;;;;;;;;;;;;5057928;28;20292;-43
2022/05/01 15:21:11;;;;;;;;;;;;;;;;;;5057687;28;19970;-43
2022/05/01 15:23:36;;;;;;;;;;;;;;;;;;5057563;28;19915;-44
2022/05/01 15:26:01;;;;;;;;;;;;;;;;;;5056794;28;20367;-43
2022/05/01 15:28:26;;;;;;;;;;;;;;;;;;5057256;28;19921;-45
2022/05/01 15:30:52;;;;;;;;;;;;;;;;;;5057629;28;19970;-44
2022/05/01 15:33:42;;;;;;;;;;;;;;;;;;5057589;28;19908;-45
2022/05/01 15:36:03;;;;;;;;;;;;;;;;;;5037654;28;20000;-44
2022/05/01 15:38:28;;;;;;;;;;;;;;;;;;5046883;28;19944;-45
2022/05/01 15:40:53;;;;;;;;;;;;;;;;;;5057673;28;19999;-44
2022/05/01 15:43:18;;;;;;;;;;;;;;;;;;5057410;28;19956;-45
2022/05/01 15:45:55;;;;;;;;;;;;;;;;;;5057357;28;19948;-44
2022/05/01 15:48:21;;;;;;;;;;;;;;;;;;5057441;28;19909;-43
2022/05/01 15:53:39;;;;;;;;;;;;;;;;;;5057252;28;19955;-44
2022/05/01 15:56:04;;;;;;;;;;;;;;;;;;5056909;28;19944;-45
2022/05/01 15:58:29;;;;;;;;;;;;;;;;;;5056845;28;20411;-44
2022/05/01 16:00:54;;;;;;;;;;;;;;;;;;5057072;28;19909;-44
2022/05/01 16:03:19;;;;;;;;;;;;;;;;;;5056972;28;19909;-47
2022/05/01 16:05:44;;;;;;;;;;;;;;;;;;5056928;28;19909;-45
2022/05/01 16:08:09;;;;;;;;;;;;;;;;;;5057009;28;20276;-45
2022/05/01 16:10:35;;;;;;;;;;;;;;;;;;5056421;28;19931;-45
2022/05/01 16:13:00;;;;;;;;;;;;;;;;;;5056920;28;19996;-44
2022/05/01 16:15:25;;;;;;;;;;;;;;;;;;5056906;28;19909;-43
2022/05/01 16:17:51;;;;;;;;;;;;;;;;;;5056847;28;19913;-44
2022/05/01 16:20:19;;;;;;;;;;;;;;;;;;5056638;28;19916;-44
2022/05/01 16:22:48;;;;;;;;;;;;;;;;;;5056696;28;19909;-44
2022/05/01 16:25:13;;;;;;;;;;;;;;;;;;5056199;28;19911;-44
2022/05/01 16:27:38;;;;;;;;;;;;;;;;;;5056325;28;20376;-44
2022/05/01 16:30:06;;;;;;;;;;;;;;;;;;5056566;28;19908;-44
2022/05/01 16:32:31;;;;;;;;;;;;;;;;;;5056330;28;19913;-43
2022/05/01 16:34:56;;;;;;;;;;;;;;;;;;5056402;28;20283;-45
2022/05/01 16:37:21;;;;;;;;;;;;;;;;;;5056424;28;19909;-43
2022/05/01 16:39:46;;;;;;;;;;;;;;;;;;5055497;28;19956;-42
2022/05/01 16:42:15;;;;;;;;;;;;;;;;;;5056196;28;20359;-45
2022/05/01 16:44:40;;;;;;;;;;;;;;;;;;5056130;28;19919;-44
2022/05/01 16:47:05;;;;;;;;;;;;;;;;;;5056384;28;19913;-43
2022/05/01 16:49:31;;;;;;;;;;;;;;;;;;5056315;28;19909;-45
2022/05/01 16:51:56;;;;;;;;;;;;;;;;;;5055945;28;19912;-43
2022/05/01 16:54:21;;;;;;;;;;;;;;;;;;5055989;28;20260;-44
2022/05/01 16:56:46;;;;;;;;;;;;;;;;;;5055762;28;20386;-44
2022/05/01 16:59:11;;;;;;;;;;;;;;;;;;5055753;28;20352;-44
2022/05/01 17:01:37;;;;;;;;;;;;;;;;;;5055641;28;20284;-44
2022/05/01 17:04:04;;;;;;;;;;;;;;;;;;5055871;28;19909;-44
2022/05/01 17:06:30;;;;;;;;;;;;;;;;;;5055879;28;19909;-44
2022/05/01 17:08:55;;;;;;;;;;;;;;;;;;5055748;28;19919;-45
2022/05/01 17:11:20;;;;;;;;;;;;;;;;;;5055482;28;20394;-44
2022/05/01 17:13:45;;;;;;;;;;;;;;;;;;5055712;28;20015;-44
2022/05/01 17:16:10;;;;;;;;;;;;;;;;;;5055140;28;20016;-44
2022/05/01 17:18:36;;;;;;;;;;;;;;;;;;5055487;28;19909;-44
2022/05/01 17:21:06;;;;;;;;;;;;;;;;;;5055448;28;19913;-44
2022/05/01 17:23:31;;;;;;;;;;;;;;;;;;5054753;28;19912;-44
2022/05/01 17:25:56;;;;;;;;;;;;;;;;;;5054289;28;20024;-44
2022/05/01 17:28:21;;;;;;;;;;;;;;;;;;5054883;28;20012;-45
2022/05/01 17:30:47;;;;;;;;;;;;;;;;;;5055216;28;19915;-45
2022/05/01 17:33:12;;;;;;;;;;;;;;;;;;5055291;28;20385;-46